createdAt,value
2023-02-23T00:02:22.418Z,9.10
2023-02-23T00:04:51.432Z,9.10
2023-02-23T00:07:21.115Z,9.10
2023-02-23T00:09:50.986Z,9.10
2023-02-23T00:12:21.156Z,9.10
2023-02-23T00:14:49.991Z,9.00
2023-02-23T00:17:18.952Z,9.00
2023-02-23T00:19:50.534Z,9.00
2023-02-23T00:22:19.655Z,9.00
2023-02-23T00:24:50.276Z,9.10
2023-02-23T00:27:21.411Z,9.00
2023-02-23T00:29:51.289Z,9.00
2023-02-23T00:32:21.112Z,8.90
2023-02-23T00:34:50.615Z,8.90
2023-02-23T00:37:22.704Z,8.90
2023-02-23T00:39:52.281Z,9.00
2023-02-23T00:42:22.494Z,9.00
2023-02-23T00:44:51.622Z,8.90
2023-02-23T00:47:20.396Z,8.80
2023-02-23T00:49:49.179Z,8.80
2023-02-23T00:52:18.037Z,8.90
2023-02-23T00:54:47.014Z,8.90
2023-02-23T00:57:15.816Z,8.90
2023-02-23T00:59:45.909Z,8.90
2023-02-23T01:02:14.771Z,8.90
2023-02-23T01:04:43.564Z,8.90
2023-02-23T01:07:13.197Z,8.90
2023-02-23T01:09:42.297Z,8.80
2023-02-23T01:12:11.014Z,8.70
2023-02-23T01:14:40.570Z,8.70
2023-02-23T01:17:10.782Z,8.70
2023-02-23T01:19:39.663Z,8.70
2023-02-23T01:22:08.584Z,8.70
2023-02-23T01:24:38.738Z,8.70
2023-02-23T01:27:07.579Z,8.70
2023-02-23T01:29:36.327Z,8.70
2023-02-23T01:32:05.527Z,8.60
2023-02-23T01:34:35.831Z,8.60
2023-02-23T01:37:05.382Z,8.50
2023-02-23T01:39:34.910Z,8.60
2023-02-23T01:42:05.447Z,8.60
2023-02-23T01:45:24.881Z,8.50
2023-02-23T01:48:01.711Z,8.40
2023-02-23T01:50:43.604Z,8.40
2023-02-23T01:53:13.170Z,8.50
2023-02-23T01:55:42.806Z,8.40
2023-02-23T01:58:19.741Z,8.40
2023-02-23T02:00:54.480Z,8.40
2023-02-23T02:03:35.199Z,8.30
2023-02-23T02:06:09.834Z,8.30
2023-02-23T02:08:45.094Z,8.30
2023-02-23T02:11:26.294Z,8.30
2023-02-23T02:14:00.365Z,8.40
2023-02-23T02:17:03.632Z,8.40
2023-02-23T02:20:32.332Z,8.40
2023-02-23T02:23:58.230Z,8.40
2023-02-23T02:26:42.003Z,8.40
2023-02-23T02:29:47.968Z,8.40
2023-02-23T02:33:16.063Z,8.40
2023-02-23T02:36:37.055Z,8.40
2023-02-23T02:39:24.210Z,8.30
2023-02-23T02:42:04.086Z,8.30
2023-02-23T02:44:43.278Z,8.30
2023-02-23T02:47:20.419Z,8.30
2023-02-23T02:50:04.384Z,8.30
2023-02-23T02:52:41.573Z,8.30
2023-02-23T02:55:18.030Z,8.30
2023-02-23T02:57:48.510Z,8.30
2023-02-23T03:00:39.162Z,8.30
2023-02-23T03:03:25.512Z,8.30
2023-02-23T03:06:13.334Z,8.30
2023-02-23T03:09:10.885Z,8.30
2023-02-23T03:12:07.641Z,8.30
2023-02-23T03:15:07.636Z,8.30
2023-02-23T03:18:05.294Z,8.30
2023-02-23T03:21:03.880Z,8.30
2023-02-23T03:24:04.728Z,8.20
2023-02-23T03:26:59.626Z,8.20
2023-02-23T03:29:55.798Z,8.20
2023-02-23T03:32:48.492Z,8.30
2023-02-23T03:35:43.961Z,8.20
2023-02-23T03:38:37.379Z,8.30
2023-02-23T03:41:27.061Z,8.30
2023-02-23T03:44:20.122Z,8.30
2023-02-23T03:47:08.480Z,8.30
2023-02-23T03:49:59.105Z,8.20
2023-02-23T03:52:50.717Z,8.20
2023-02-23T03:55:42.786Z,8.30
2023-02-23T03:58:41.555Z,8.40
2023-02-23T04:01:33.146Z,8.40
2023-02-23T04:04:22.147Z,8.30
2023-02-23T04:07:09.653Z,8.30
2023-02-23T04:09:56.208Z,8.30
2023-02-23T04:12:52.694Z,8.30
2023-02-23T04:15:27.870Z,8.30
2023-02-23T04:17:58.416Z,8.30
2023-02-23T04:20:28.196Z,8.30
2023-02-23T04:22:56.972Z,8.30
2023-02-23T04:25:26.928Z,8.30
2023-02-23T04:27:55.747Z,8.30
2023-02-23T04:30:25.330Z,8.30
2023-02-23T04:32:54.388Z,8.30
2023-02-23T04:35:24.815Z,8.30
2023-02-23T04:37:53.758Z,8.30
2023-02-23T04:40:24.306Z,8.30
2023-02-23T04:42:53.646Z,8.20
2023-02-23T04:45:23.614Z,8.20
2023-02-23T04:47:53.198Z,8.20
2023-02-23T04:50:23.798Z,8.20
2023-02-23T04:52:53.413Z,8.20
2023-02-23T04:55:25.644Z,8.10
2023-02-23T04:57:59.433Z,8.10
2023-02-23T05:00:29.455Z,8.10
2023-02-23T05:02:58.617Z,8.20
2023-02-23T05:05:28.983Z,8.20
2023-02-23T05:07:57.716Z,8.20
2023-02-23T05:10:26.757Z,8.20
2023-02-23T05:12:55.543Z,8.20
2023-02-23T05:15:24.475Z,8.10
2023-02-23T05:17:53.993Z,8.10
2023-02-23T05:20:23.373Z,8.20
2023-02-23T05:22:53.524Z,8.20
2023-02-23T05:25:22.374Z,8.10
2023-02-23T05:27:51.245Z,8.10
2023-02-23T05:30:20.226Z,8.10
2023-02-23T05:32:49.429Z,8.20
2023-02-23T05:35:18.394Z,8.10
2023-02-23T05:37:47.196Z,8.10
2023-02-23T05:40:17.728Z,8.10
2023-02-23T05:42:46.805Z,8.00
2023-02-23T05:45:15.813Z,8.00
2023-02-23T05:47:44.717Z,8.00
2023-02-23T05:50:14.233Z,8.00
2023-02-23T05:52:43.804Z,8.10
2023-02-23T05:55:13.572Z,8.10
2023-02-23T05:57:44.161Z,8.10
2023-02-23T06:00:14.657Z,8.00
2023-02-23T06:02:43.636Z,8.00
2023-02-23T06:05:14.211Z,8.00
2023-02-23T06:07:42.961Z,8.00
2023-02-23T06:10:13.505Z,8.00
2023-02-23T06:12:43.710Z,8.00
2023-02-23T06:15:13.269Z,8.00
2023-02-23T06:17:42.050Z,8.00
2023-02-23T06:20:13.030Z,8.00
2023-02-23T06:22:42.518Z,7.90
2023-02-23T06:25:13.621Z,7.90
2023-02-23T06:27:45.907Z,7.90
2023-02-23T06:30:16.096Z,7.90
2023-02-23T06:32:45.022Z,7.90
2023-02-23T06:35:14.188Z,8.00
2023-02-23T06:37:43.426Z,8.00
2023-02-23T06:40:13.260Z,8.00
2023-02-23T06:42:43.453Z,8.00
2023-02-23T06:45:13.660Z,8.00
2023-02-23T06:47:42.407Z,7.90
2023-02-23T06:50:13.188Z,8.00
2023-02-23T06:52:43.008Z,8.00
2023-02-23T06:55:13.211Z,8.10
2023-02-23T06:57:44.363Z,8.10
2023-02-23T07:00:17.890Z,8.00
2023-02-23T07:02:46.869Z,8.00
2023-02-23T07:05:15.636Z,8.10
2023-02-23T07:07:45.416Z,8.20
2023-02-23T07:10:14.371Z,8.30
2023-02-23T07:12:44.510Z,8.50
2023-02-23T07:15:17.908Z,8.60
2023-02-23T07:17:48.943Z,8.70
2023-02-23T07:20:18.199Z,8.80
2023-02-23T07:22:46.932Z,8.90
2023-02-23T07:25:15.766Z,8.80
2023-02-23T07:27:45.980Z,8.80
2023-02-23T07:30:18.302Z,8.80
2023-02-23T07:32:47.301Z,8.80
2023-02-23T07:35:16.203Z,8.80
2023-02-23T07:37:44.898Z,8.90
2023-02-23T07:40:15.240Z,9.20
2023-02-23T07:42:45.743Z,9.40
2023-02-23T07:45:14.762Z,9.90
2023-02-23T07:47:43.625Z,10.30
2023-02-23T07:50:14.055Z,10.60
2023-02-23T07:52:44.398Z,10.90
2023-02-23T07:55:13.898Z,10.90
2023-02-23T07:57:42.809Z,11.10
2023-02-23T08:00:14.838Z,10.90
2023-02-23T08:02:43.718Z,10.90
2023-02-23T08:05:12.906Z,10.90
2023-02-23T08:07:41.723Z,11.00
2023-02-23T08:10:12.496Z,10.90
2023-02-23T08:12:41.595Z,10.60
2023-02-23T08:15:13.249Z,10.40
2023-02-23T08:17:42.621Z,10.20
2023-02-23T08:20:12.804Z,10.10
2023-02-23T08:22:49.213Z,10.00
2023-02-23T08:25:19.519Z,9.80
2023-02-23T08:27:48.952Z,9.80
2023-02-23T08:30:21.434Z,9.80
2023-02-23T08:32:51.933Z,10.10
2023-02-23T08:35:21.316Z,10.50
2023-02-23T08:37:50.270Z,10.70
2023-02-23T08:40:20.908Z,10.90
2023-02-23T08:42:52.197Z,11.10
2023-02-23T08:45:22.535Z,11.00
2023-02-23T08:47:51.440Z,10.90
2023-02-23T08:50:20.285Z,11.10
2023-02-23T08:52:49.126Z,11.20
2023-02-23T08:55:18.697Z,11.20
2023-02-23T08:57:47.913Z,11.10
2023-02-23T09:00:18.110Z,11.40
2023-02-23T09:02:48.514Z,11.60
2023-02-23T09:05:18.478Z,11.60
2023-02-23T09:07:49.302Z,11.80
2023-02-23T09:10:24.135Z,11.60
2023-02-23T09:12:53.023Z,11.40
2023-02-23T09:15:22.388Z,11.50
2023-02-23T09:17:52.646Z,11.80
2023-02-23T09:20:26.882Z,11.80
2023-02-23T09:22:56.155Z,12.10
2023-02-23T09:25:25.329Z,12.40
2023-02-23T09:27:57.076Z,12.60
2023-02-23T09:30:26.035Z,12.50
2023-02-23T09:32:57.557Z,12.50
2023-02-23T09:35:26.923Z,12.30
2023-02-23T09:37:57.748Z,12.50
2023-02-23T09:40:30.421Z,12.70
2023-02-23T09:43:07.464Z,12.80
2023-02-23T09:45:43.765Z,12.90
2023-02-23T09:48:19.801Z,13.10
2023-02-23T09:50:56.676Z,13.20
2023-02-23T09:53:37.646Z,13.20
2023-02-23T09:56:14.991Z,13.30
2023-02-23T09:58:44.671Z,12.90
2023-02-23T10:01:47.106Z,12.80
2023-02-23T10:04:25.107Z,12.20
2023-02-23T10:07:02.520Z,11.60
2023-02-23T10:09:56.508Z,11.30
2023-02-23T10:12:39.528Z,11.30
2023-02-23T10:15:26.070Z,11.30
2023-02-23T10:18:13.765Z,11.40
2023-02-23T10:20:55.255Z,11.50
2023-02-23T10:23:32.185Z,11.30
2023-02-23T10:26:04.893Z,11.20
2023-02-23T10:28:38.200Z,11.50
2023-02-23T10:31:30.149Z,11.80
2023-02-23T10:34:06.712Z,12.10
2023-02-23T10:36:47.375Z,12.50
2023-02-23T10:39:16.299Z,12.60
2023-02-23T10:41:46.345Z,12.60
2023-02-23T10:44:23.206Z,12.50
2023-02-23T10:46:58.362Z,12.60
2023-02-23T10:49:37.099Z,12.80
2023-02-23T10:52:13.850Z,12.90
2023-02-23T10:54:47.743Z,12.80
2023-02-23T10:57:30.256Z,12.40
2023-02-23T11:00:27.684Z,12.30
2023-02-23T11:02:59.528Z,12.20
2023-02-23T11:05:45.590Z,12.20
2023-02-23T11:08:33.036Z,12.10
2023-02-23T11:11:21.912Z,12.00
2023-02-23T11:13:52.574Z,12.00
2023-02-23T11:16:25.483Z,12.10
2023-02-23T11:18:59.282Z,12.20
2023-02-23T11:21:33.705Z,12.10
2023-02-23T11:24:20.693Z,12.00
2023-02-23T11:26:52.978Z,11.90
2023-02-23T11:29:35.327Z,11.90
2023-02-23T11:32:13.686Z,11.90
2023-02-23T11:34:43.805Z,11.80
2023-02-23T11:37:23.844Z,11.70
2023-02-23T11:39:57.426Z,11.80
2023-02-23T11:42:33.195Z,11.90
2023-02-23T11:45:08.828Z,12.00
2023-02-23T11:47:48.159Z,12.30
2023-02-23T11:50:29.545Z,12.40
2023-02-23T11:53:04.849Z,12.50
2023-02-23T11:55:38.622Z,12.70
2023-02-23T11:58:24.493Z,12.80
2023-02-23T12:01:02.355Z,12.90
2023-02-23T12:03:35.335Z,13.00
2023-02-23T12:06:04.889Z,13.30
2023-02-23T12:08:45.196Z,13.40
2023-02-23T12:11:23.285Z,13.40
2023-02-23T12:13:59.532Z,13.30
2023-02-23T12:16:37.084Z,13.20
2023-02-23T12:19:23.297Z,13.20
2023-02-23T12:22:03.885Z,13.20
2023-02-23T12:24:45.195Z,13.30
2023-02-23T12:27:22.693Z,13.40
2023-02-23T12:30:10.103Z,13.40
2023-02-23T12:32:51.439Z,13.30
2023-02-23T12:35:29.554Z,13.30
2023-02-23T12:38:10.243Z,13.20
2023-02-23T12:40:44.299Z,12.90
2023-02-23T12:43:26.351Z,12.70
2023-02-23T12:46:08.500Z,12.80
2023-02-23T12:48:51.681Z,12.80
2023-02-23T12:51:31.470Z,12.80
2023-02-23T12:54:00.530Z,12.70
2023-02-23T12:56:48.641Z,12.60
2023-02-23T12:59:51.320Z,12.60
2023-02-23T13:02:30.395Z,12.60
2023-02-23T13:05:24.725Z,12.70
2023-02-23T13:08:19.670Z,12.60
2023-02-23T13:10:56.843Z,12.50
2023-02-23T13:13:37.896Z,12.60
2023-02-23T13:16:23.223Z,12.60
2023-02-23T13:19:12.023Z,12.60
2023-02-23T13:21:47.621Z,12.70
2023-02-23T13:24:22.696Z,12.60
2023-02-23T13:27:01.260Z,12.60
2023-02-23T13:29:39.295Z,12.60
2023-02-23T13:32:16.025Z,12.60
2023-02-23T13:34:52.717Z,12.50
2023-02-23T13:37:28.278Z,12.50
2023-02-23T13:40:18.962Z,12.40
2023-02-23T13:43:03.166Z,12.40
2023-02-23T13:45:55.143Z,12.40
2023-02-23T13:48:56.071Z,12.40
2023-02-23T13:51:36.836Z,12.40
2023-02-23T13:54:25.495Z,12.50
2023-02-23T13:56:58.148Z,12.60
2023-02-23T13:59:31.012Z,12.60
2023-02-23T14:02:23.852Z,12.60
2023-02-23T14:04:58.511Z,12.70
2023-02-23T14:07:32.361Z,12.70
2023-02-23T14:10:07.795Z,12.80
2023-02-23T14:12:40.349Z,12.80
2023-02-23T14:15:43.480Z,12.90
2023-02-23T14:18:34.442Z,12.90
2023-02-23T14:21:27.876Z,12.80
2023-02-23T14:24:14.280Z,12.70
2023-02-23T14:27:07.431Z,12.60
2023-02-23T14:29:42.160Z,12.60
2023-02-23T14:32:32.544Z,12.70
2023-02-23T14:35:03.274Z,12.80
2023-02-23T14:37:38.242Z,12.80
2023-02-23T14:40:16.224Z,12.70
2023-02-23T14:42:51.368Z,12.60
2023-02-23T14:45:27.406Z,12.70
2023-02-23T14:48:02.918Z,12.70
2023-02-23T14:50:35.314Z,12.70
2023-02-23T14:53:15.158Z,12.80
2023-02-23T14:55:45.730Z,12.80
2023-02-23T14:58:25.751Z,12.70
2023-02-23T15:00:57.654Z,12.60
2023-02-23T15:03:26.551Z,12.50
2023-02-23T15:06:01.222Z,12.40
2023-02-23T15:08:35.278Z,12.40
2023-02-23T15:11:12.124Z,12.40
2023-02-23T15:13:50.154Z,12.30
2023-02-23T15:16:31.939Z,12.30
2023-02-23T15:19:02.790Z,12.20
2023-02-23T15:21:32.352Z,12.10
2023-02-23T15:24:13.610Z,12.00
2023-02-23T15:26:43.902Z,12.00
2023-02-23T15:29:16.770Z,12.00
2023-02-23T15:31:51.933Z,12.00
2023-02-23T15:34:25.183Z,12.00
2023-02-23T15:36:59.400Z,12.00
2023-02-23T15:39:40.201Z,11.90
2023-02-23T15:42:14.582Z,11.90
2023-02-23T15:44:45.122Z,11.80
2023-02-23T15:47:22.821Z,11.70
2023-02-23T15:50:05.738Z,11.70
2023-02-23T15:52:35.330Z,11.70
2023-02-23T15:55:10.767Z,11.60
2023-02-23T15:57:49.388Z,11.60
2023-02-23T16:00:32.702Z,11.60
2023-02-23T16:03:04.563Z,11.60
2023-02-23T16:05:41.948Z,11.60
2023-02-23T16:08:25.336Z,11.60
2023-02-23T16:11:05.516Z,11.60
2023-02-23T16:13:34.894Z,11.60
2023-02-23T16:16:10.190Z,11.60
2023-02-23T16:18:44.950Z,11.60
2023-02-23T16:21:19.293Z,11.60
2023-02-23T16:23:52.657Z,11.60
2023-02-23T16:26:29.590Z,11.60
2023-02-23T16:29:00.908Z,11.60
2023-02-23T16:31:44.717Z,11.60
2023-02-23T16:34:26.081Z,11.70
2023-02-23T16:37:00.985Z,11.60
2023-02-23T16:39:34.353Z,11.50
2023-02-23T16:42:04.726Z,11.40
2023-02-23T16:44:43.089Z,11.30
2023-02-23T16:47:33.496Z,11.40
2023-02-23T16:50:13.701Z,11.40
2023-02-23T16:52:51.930Z,11.40
2023-02-23T16:55:26.146Z,11.40
2023-02-23T16:58:00.388Z,11.30
2023-02-23T17:00:33.132Z,11.30
2023-02-23T17:03:02.274Z,11.30
2023-02-23T17:05:31.416Z,11.30
2023-02-23T17:08:00.542Z,11.40
2023-02-23T17:10:34.409Z,11.30
2023-02-23T17:13:07.173Z,11.40
2023-02-23T17:15:39.552Z,11.30
2023-02-23T17:18:08.962Z,11.30
2023-02-23T17:20:37.910Z,11.20
2023-02-23T17:23:06.896Z,11.20
2023-02-23T17:25:37.762Z,11.20
2023-02-23T17:28:08.157Z,11.20
2023-02-23T17:30:39.414Z,11.20
2023-02-23T17:33:08.823Z,11.20
2023-02-23T17:35:38.902Z,11.20
2023-02-23T17:38:09.342Z,11.10
2023-02-23T17:40:38.203Z,11.00
2023-02-23T17:43:08.839Z,11.10
2023-02-23T17:45:37.667Z,11.10
2023-02-23T17:48:07.215Z,11.10
2023-02-23T17:50:36.041Z,11.10
2023-02-23T17:53:04.907Z,11.10
2023-02-23T17:55:33.781Z,11.10
2023-02-23T17:58:02.544Z,11.20
2023-02-23T18:00:35.668Z,11.30
2023-02-23T18:03:04.458Z,11.20
2023-02-23T18:05:39.347Z,11.10
2023-02-23T18:08:08.577Z,11.10
2023-02-23T18:10:41.128Z,10.90
2023-02-23T18:13:10.392Z,10.90
2023-02-23T18:15:54.010Z,10.90
2023-02-23T18:18:26.323Z,11.00
2023-02-23T18:20:57.328Z,11.00
2023-02-23T18:23:28.901Z,11.00
2023-02-23T18:26:07.389Z,11.10
2023-02-23T18:28:37.370Z,11.00
2023-02-23T18:31:08.083Z,11.00
2023-02-23T18:33:36.972Z,10.90
2023-02-23T18:36:19.135Z,10.90
2023-02-23T18:38:47.956Z,10.90
2023-02-23T18:41:19.487Z,10.80
2023-02-23T18:43:48.480Z,10.80
2023-02-23T18:46:19.520Z,10.80
2023-02-23T18:48:51.764Z,10.70
2023-02-23T18:51:23.147Z,10.60
2023-02-23T18:53:53.087Z,10.60
2023-02-23T18:56:28.248Z,10.60
2023-02-23T18:59:00.170Z,10.70
2023-02-23T19:01:33.393Z,10.60
2023-02-23T19:04:04.698Z,10.60
2023-02-23T19:06:35.030Z,10.60
2023-02-23T19:09:08.002Z,10.60
2023-02-23T19:11:38.117Z,10.70
2023-02-23T19:14:13.340Z,10.60
2023-02-23T19:16:47.994Z,10.60
2023-02-23T19:19:18.092Z,10.60
2023-02-23T19:21:47.001Z,10.60
2023-02-23T19:24:16.119Z,10.60
2023-02-23T19:26:44.912Z,10.60
2023-02-23T19:29:13.677Z,10.60
2023-02-23T19:31:44.061Z,10.60
2023-02-23T19:34:15.401Z,10.70
2023-02-23T19:36:47.180Z,10.60
2023-02-23T19:39:16.788Z,10.60
2023-02-23T19:41:47.211Z,10.60
2023-02-23T19:44:16.403Z,10.70
2023-02-23T19:46:46.565Z,10.60
2023-02-23T19:49:16.717Z,10.60
2023-02-23T19:51:45.454Z,10.50
2023-02-23T19:54:14.176Z,10.40
2023-02-23T19:56:43.392Z,10.40
2023-02-23T19:59:12.924Z,10.40
2023-02-23T20:01:43.581Z,10.30
2023-02-23T20:04:14.049Z,10.30
2023-02-23T20:06:47.176Z,10.30
2023-02-23T20:09:16.600Z,10.30
2023-02-23T20:11:45.352Z,10.30
2023-02-23T20:14:14.097Z,10.30
2023-02-23T20:16:43.154Z,10.30
2023-02-23T20:19:13.468Z,10.30
2023-02-23T20:21:42.370Z,10.30
2023-02-23T20:24:12.845Z,10.30
2023-02-23T20:26:41.646Z,10.30
2023-02-23T20:29:18.024Z,10.30
2023-02-23T20:31:51.598Z,10.30
2023-02-23T20:34:25.552Z,10.30
2023-02-23T20:36:56.949Z,10.30
2023-02-23T20:39:27.083Z,10.20
2023-02-23T20:41:55.966Z,10.20
2023-02-23T20:44:26.366Z,10.20
2023-02-23T20:46:55.218Z,10.10
2023-02-23T20:49:27.447Z,10.10
2023-02-23T20:51:56.362Z,10.20
2023-02-23T20:54:27.570Z,10.20
2023-02-23T20:57:07.547Z,10.20
2023-02-23T20:59:37.478Z,10.30
2023-02-23T21:02:10.971Z,10.30
2023-02-23T21:04:44.192Z,10.20
2023-02-23T21:07:13.561Z,10.10
2023-02-23T21:09:42.594Z,10.00
2023-02-23T21:12:11.859Z,10.00
2023-02-23T21:14:40.606Z,10.00
2023-02-23T21:17:09.784Z,10.10
2023-02-23T21:19:40.185Z,10.00
2023-02-23T21:22:09.450Z,10.00
2023-02-23T21:24:41.162Z,10.00
2023-02-23T21:27:12.843Z,9.90
2023-02-23T21:29:42.610Z,10.00
2023-02-23T21:32:16.811Z,10.00
2023-02-23T21:34:47.176Z,9.90
2023-02-23T21:37:16.029Z,9.80
2023-02-23T21:39:46.741Z,9.90
2023-02-23T21:42:15.500Z,9.90
2023-02-23T21:44:45.831Z,9.90
2023-02-23T21:47:15.487Z,9.80
2023-02-23T21:49:49.357Z,9.80
2023-02-23T21:52:20.077Z,9.80
2023-02-23T21:54:51.172Z,9.90
2023-02-23T21:57:22.735Z,9.90
2023-02-23T21:59:51.706Z,9.80
2023-02-23T22:02:20.631Z,9.80
2023-02-23T22:04:51.186Z,9.80
2023-02-23T22:07:21.813Z,9.70
2023-02-23T22:09:50.807Z,9.70
2023-02-23T22:12:19.592Z,9.80
2023-02-23T22:14:48.757Z,9.80
2023-02-23T22:17:19.370Z,9.80
2023-02-23T22:19:51.672Z,9.80
2023-02-23T22:22:21.911Z,9.90
2023-02-23T22:24:50.996Z,9.80
2023-02-23T22:27:19.842Z,9.80
2023-02-23T22:29:48.679Z,9.70
2023-02-23T22:32:17.924Z,9.70
2023-02-23T22:34:46.843Z,9.70
2023-02-23T22:37:15.613Z,9.70
2023-02-23T22:39:46.345Z,9.70
2023-02-23T22:42:15.622Z,9.70
2023-02-23T22:44:44.289Z,9.70
2023-02-23T22:47:13.664Z,9.70
2023-02-23T22:49:42.444Z,9.70
2023-02-23T22:52:11.226Z,9.70
2023-02-23T22:54:40.735Z,9.80
2023-02-23T22:57:11.641Z,9.80
2023-02-23T22:59:40.416Z,9.80
2023-02-23T23:02:10.890Z,9.80
2023-02-23T23:04:40.329Z,9.80
2023-02-23T23:07:10.564Z,9.80
2023-02-23T23:09:40.070Z,9.70
2023-02-23T23:12:12.007Z,9.70
2023-02-23T23:14:41.498Z,9.70
2023-02-23T23:17:10.580Z,9.70
2023-02-23T23:19:40.862Z,9.70
2023-02-23T23:22:14.023Z,9.60
2023-02-23T23:24:46.260Z,9.60
2023-02-23T23:27:16.992Z,9.60
2023-02-23T23:29:46.909Z,9.60
2023-02-23T23:32:18.496Z,9.50
2023-02-23T23:34:49.433Z,9.50
2023-02-23T23:37:19.614Z,9.50
2023-02-23T23:39:59.124Z,9.50
2023-02-23T23:42:29.292Z,9.50
2023-02-23T23:44:58.030Z,9.50
2023-02-23T23:47:27.358Z,9.50
2023-02-23T23:49:56.047Z,9.60
2023-02-23T23:52:25.336Z,9.60
2023-02-23T23:54:54.093Z,9.60
2023-02-23T23:57:22.803Z,9.60
2023-02-23T23:59:53.818Z,9.60
